Time;durP1;ratioP1;P1;durP2;ratioP2;P2;SDS_P1;SDS_P2;PMS_P1;PMS_P2;Temp;Humidity;BMP_temperature;BMP_pressure;BME280_temperature;BME280_humidity;BME280_pressure;Samples;Min_cycle;Max_cycle;Signal;HPM_P1;HPM_P2
2022/09/08 00:01:10;;;;;;;2.77;1.53;;;17.00;99.90;;;;;;5068404;28;20248;-49
2022/09/08 00:03:37;;;;;;;2.00;1.80;;;17.10;99.90;;;;;;5069223;28;20499;-49
2022/09/08 00:06:08;;;;;;;2.60;2.17;;;16.90;99.90;;;;;;5072613;28;20920;-49
2022/09/08 00:08:35;;;;;;;3.40;1.73;;;17.10;99.90;;;;;;5072840;28;20444;-49
2022/09/08 00:11:06;;;;;;;3.35;1.98;;;17.20;99.90;;;;;;5072256;28;20530;-49
2022/09/08 00:13:37;;;;;;;2.83;2.40;;;17.20;99.90;;;;;;5072863;28;20198;-48
2022/09/08 00:16:10;;;;;;;3.63;1.87;;;17.10;99.90;;;;;;5072652;28;21045;-48
2022/09/08 00:18:40;;;;;;;1.87;1.60;;;17.10;99.90;;;;;;5070881;28;20460;-48
2022/09/08 00:21:07;;;;;;;4.03;1.60;;;17.10;99.90;;;;;;5072029;28;20545;-49
2022/09/08 00:23:34;;;;;;;4.37;2.50;;;17.00;99.90;;;;;;5072169;28;20472;-49
2022/09/08 00:26:01;;;;;;;2.53;1.83;;;17.20;99.90;;;;;;5072478;28;20964;-49
2022/09/08 00:28:28;;;;;;;2.80;1.80;;;17.20;99.90;;;;;;5072354;28;20476;-48
2022/09/08 00:30:55;;;;;;;2.60;1.97;;;17.20;99.90;;;;;;5071687;28;20445;-50
2022/09/08 00:33:24;;;;;;;3.20;2.00;;;17.20;99.90;;;;;;5072352;28;20440;-49
2022/09/08 00:35:51;;;;;;;3.80;2.43;;;17.10;99.90;;;;;;5072446;28;20510;-49
2022/09/08 00:38:19;;;;;;;3.67;2.20;;;17.00;99.90;;;;;;5072237;28;20448;-49
2022/09/08 00:40:47;;;;;;;2.50;2.30;;;17.10;99.90;;;;;;5071513;28;20517;-48
2022/09/08 00:43:37;;;;;;;2.53;2.20;;;17.30;99.90;;;;;;5072055;28;20491;-49
2022/09/08 00:46:14;;;;;;;2.83;2.17;;;17.10;99.90;;;;;;5071960;28;20299;-49
2022/09/08 00:48:47;;;;;;;4.20;2.43;;;16.60;99.90;;;;;;5071601;28;20531;-49
2022/09/08 00:51:17;;;;;;;3.37;2.37;;;16.10;99.90;;;;;;5072145;28;20444;-48
2022/09/08 00:53:46;;;;;;;5.10;2.30;;;16.20;99.90;;;;;;5071867;28;20428;-49
2022/09/08 00:56:13;;;;;;;5.07;2.08;;;16.30;99.90;;;;;;5071386;28;20502;-48
2022/09/08 00:58:41;;;;;;;3.90;2.80;;;15.80;99.90;;;;;;5071437;28;20202;-47
2022/09/08 01:01:08;;;;;;;2.83;2.20;;;16.00;99.90;;;;;;5071581;28;21022;-48
2022/09/08 01:03:38;;;;;;;3.17;2.40;;;16.30;99.90;;;;;;5071515;28;20464;-49
2022/09/08 01:06:21;;;;;;;2.50;2.20;;;16.60;99.90;;;;;;5071536;28;20216;-48
2022/09/08 01:14:48;;;;;;;3.03;2.50;;;16.60;99.90;;;;;;5071380;28;20444;-49
2022/09/08 01:17:17;;;;;;;3.03;1.80;;;16.70;99.90;;;;;;5069571;28;20578;-48
2022/09/08 01:19:46;;;;;;;2.30;1.90;;;16.50;99.90;;;;;;5070915;28;20509;-49
2022/09/08 01:22:28;;;;;;;3.67;2.30;;;16.40;99.90;;;;;;5071582;28;20439;-48
2022/09/08 01:25:01;;;;;;;5.20;2.70;;;16.70;99.90;;;;;;5071338;28;20476;-49
2022/09/08 01:27:31;;;;;;;3.15;2.60;;;16.90;99.90;;;;;;5071283;28;20440;-49
2022/09/08 01:30:02;;;;;;;3.70;1.93;;;17.00;99.90;;;;;;5070475;28;20194;-50
2022/09/08 01:32:31;;;;;;;2.60;2.37;;;17.00;99.90;;;;;;5071225;28;20904;-49
2022/09/08 01:34:58;;;;;;;2.70;2.40;;;16.90;99.90;;;;;;5070892;28;20471;-49
2022/09/08 01:37:25;;;;;;;3.50;2.50;;;16.70;99.90;;;;;;5071715;28;20445;-49
2022/09/08 01:39:52;;;;;;;2.87;2.43;;;16.80;99.90;;;;;;5070543;28;20440;-49
2022/09/08 01:42:19;;;;;;;2.73;2.43;;;16.80;99.90;;;;;;5071149;28;20448;-49
2022/09/08 01:44:48;;;;;;;4.40;2.60;;;17.00;99.90;;;;;;5070545;28;20481;-51
2022/09/08 01:47:15;;;;;;;3.70;2.80;;;16.90;99.90;;;;;;5070941;28;20533;-50
2022/09/08 01:49:42;;;;;;;4.57;2.30;;;16.30;99.90;;;;;;5070182;28;20432;-48
2022/09/08 01:52:09;;;;;;;2.80;2.30;;;16.50;99.90;;;;;;5071139;28;20452;-49
2022/09/08 01:54:36;;;;;;;4.23;2.40;;;16.70;99.90;;;;;;5070660;28;20443;-48
2022/09/08 01:57:03;;;;;;;4.00;2.00;;;16.80;99.90;;;;;;5070228;28;20436;-51
2022/09/08 01:59:30;;;;;;;4.33;2.33;;;16.50;99.90;;;;;;5069921;28;20432;-50
2022/09/08 02:01:59;;;;;;;2.60;2.30;;;16.00;99.90;;;;;;5070423;28;20432;-49
2022/09/08 02:04:26;;;;;;;2.87;1.80;;;16.30;99.90;;;;;;5070432;28;20472;-50
2022/09/08 02:06:53;;;;;;;2.40;2.20;;;16.00;99.90;;;;;;5070781;28;20477;-49
2022/09/08 02:09:20;;;;;;;4.30;2.67;;;16.10;99.90;;;;;;5070164;28;20537;-49
2022/09/08 02:11:48;;;;;;;3.07;2.50;;;16.50;99.90;;;;;;5070456;28;20815;-49
2022/09/08 02:14:15;;;;;;;2.80;2.40;;;16.60;99.90;;;;;;5070209;28;20429;-49
2022/09/08 02:16:43;;;;;;;3.20;2.90;;;16.60;99.90;;;;;;5070617;28;20460;-50
2022/09/08 02:19:12;;;;;;;2.70;2.10;;;16.80;99.90;;;;;;5067756;28;20841;-49
2022/09/08 02:21:40;;;;;;;2.93;2.40;;;16.40;99.90;;;;;;5070144;28;20519;-49
2022/09/08 02:24:07;;;;;;;3.47;2.50;;;16.10;99.90;;;;;;5070127;28;20570;-48
2022/09/08 02:26:34;;;;;;;4.17;2.20;;;16.00;99.90;;;;;;5069836;28;20487;-49
2022/09/08 02:29:02;;;;;;;2.83;2.30;;;16.20;99.90;;;;;;5069348;28;20437;-49
2022/09/08 02:31:29;;;;;;;4.70;2.50;;;16.40;99.90;;;;;;5070108;28;20437;-49
2022/09/08 02:33:57;;;;;;;2.73;2.13;;;16.30;99.90;;;;;;5069909;28;20451;-49
2022/09/08 02:36:25;;;;;;;3.57;2.40;;;16.30;99.90;;;;;;5069789;28;20525;-49
2022/09/08 02:38:53;;;;;;;7.63;2.60;;;16.50;99.90;;;;;;5069282;28;20449;-50
2022/09/08 02:41:21;;;;;;;4.93;2.80;;;16.50;99.90;;;;;;5069751;28;20515;-50
2022/09/08 02:43:48;;;;;;;3.87;2.10;;;16.60;99.90;;;;;;5069736;28;20276;-49
2022/09/08 02:46:17;;;;;;;4.10;2.13;;;16.70;99.90;;;;;;5069604;28;20733;-49
2022/09/08 02:48:44;;;;;;;2.92;2.25;;;16.70;99.90;;;;;;5069333;28;20929;-50
2022/09/08 02:51:14;;;;;;;3.00;2.27;;;16.90;99.90;;;;;;5069740;28;20198;-49
2022/09/08 02:53:43;;;;;;;3.70;2.40;;;16.90;99.90;;;;;;5069680;28;20436;-49
2022/09/08 02:56:11;;;;;;;3.37;2.40;;;17.00;99.90;;;;;;5068500;28;20469;-48
2022/09/08 02:58:38;;;;;;;5.27;2.63;;;16.90;99.90;;;;;;5069567;28;20460;-47
2022/09/08 03:01:07;;;;;;;3.60;3.00;;;16.80;99.90;;;;;;5069364;28;20444;-49
2022/09/08 03:03:34;;;;;;;5.23;2.80;;;16.70;99.90;;;;;;5069279;28;20470;-49
2022/09/08 03:06:01;;;;;;;3.97;2.70;;;16.60;99.90;;;;;;5069945;28;20530;-49
2022/09/08 03:08:30;;;;;;;3.20;2.30;;;16.20;99.90;;;;;;5069538;28;20453;-49
2022/09/08 03:10:58;;;;;;;2.85;2.10;;;16.20;99.90;;;;;;5068910;28;20451;-48
2022/09/08 03:13:26;;;;;;;3.50;2.13;;;16.40;99.90;;;;;;5069693;28;20659;-49
2022/09/08 03:15:53;;;;;;;6.10;2.93;;;16.70;99.90;;;;;;5069259;28;20545;-49
2022/09/08 03:18:20;;;;;;;3.00;2.17;;;16.60;99.90;;;;;;5068112;28;20453;-49
2022/09/08 03:20:47;;;;;;;2.80;2.50;;;16.70;99.90;;;;;;5068561;28;20436;-49
2022/09/08 03:23:19;;;;;;;6.47;3.20;;;16.70;99.90;;;;;;5069199;28;20433;-49
2022/09/08 03:25:47;;;;;;;3.95;2.97;;;16.80;99.90;;;;;;5069265;28;20487;-49
2022/09/08 03:28:20;;;;;;;3.37;1.90;;;16.30;99.90;;;;;;5069613;28;20205;-49
2022/09/08 03:30:48;;;;;;;4.67;2.27;;;16.20;99.90;;;;;;5068681;28;20480;-49
2022/09/08 03:33:15;;;;;;;2.47;2.20;;;16.40;99.90;;;;;;5069439;28;20535;-49
2022/09/08 03:35:43;;;;;;;5.60;2.43;;;16.60;99.90;;;;;;5069368;28;20476;-48
2022/09/08 03:38:10;;;;;;;4.30;2.13;;;16.60;99.90;;;;;;5069159;28;21169;-49
2022/09/08 03:40:40;;;;;;;2.90;2.60;;;16.60;99.90;;;;;;5072456;28;20428;-49
2022/09/08 03:43:07;;;;;;;5.60;2.70;;;16.60;99.90;;;;;;5073269;28;20523;-49
2022/09/08 03:45:36;;;;;;;5.33;2.70;;;16.60;99.90;;;;;;5073433;28;20857;-49
2022/09/08 03:48:03;;;;;;;6.43;2.40;;;16.60;99.90;;;;;;5073342;28;20440;-49
2022/09/08 03:50:30;;;;;;;3.47;2.80;;;16.80;99.90;;;;;;5072434;28;20490;-49
2022/09/08 03:52:58;;;;;;;4.10;2.60;;;16.80;99.90;;;;;;5073173;28;20433;-50
2022/09/08 03:55:25;;;;;;;3.10;2.63;;;16.20;99.90;;;;;;5073064;28;20490;-50
2022/09/08 03:57:52;;;;;;;4.27;3.00;;;15.60;99.90;;;;;;5072059;28;20868;-49
2022/09/08 04:00:19;;;;;;;4.27;2.80;;;15.50;99.90;;;;;;5072182;28;20786;-51
2022/09/08 04:02:47;;;;;;;3.70;2.80;;;15.70;99.90;;;;;;5072889;28;20459;-48
2022/09/08 04:05:14;;;;;;;3.60;2.47;;;15.90;99.90;;;;;;5072527;28;20516;-50
2022/09/08 04:07:41;;;;;;;3.30;2.67;;;16.20;99.90;;;;;;5072714;28;20475;-51
2022/09/08 04:10:10;;;;;;;3.17;2.10;;;16.40;99.90;;;;;;5072055;28;20498;-50
2022/09/08 04:12:37;;;;;;;5.30;2.50;;;16.60;99.90;;;;;;5072693;28;21038;-49
2022/09/08 04:15:05;;;;;;;3.13;2.30;;;16.30;99.90;;;;;;5072515;28;20517;-49
2022/09/08 04:17:32;;;;;;;2.47;2.07;;;16.30;99.90;;;;;;5071026;28;20452;-51
2022/09/08 04:20:00;;;;;;;3.10;2.60;;;16.00;99.90;;;;;;5071861;28;20489;-49
2022/09/08 04:22:27;;;;;;;3.83;2.40;;;15.80;99.90;;;;;;5072539;28;20424;-49
2022/09/08 04:24:54;;;;;;;3.60;2.47;;;15.90;99.90;;;;;;5072129;28;20887;-50
2022/09/08 04:27:22;;;;;;;2.53;2.00;;;16.10;99.90;;;;;;5073751;28;20849;-49
2022/09/08 04:29:50;;;;;;;3.93;2.83;;;16.40;99.90;;;;;;5071525;28;20527;-50
2022/09/08 04:32:17;;;;;;;3.08;2.55;;;16.40;99.90;;;;;;5072499;28;20460;-52
2022/09/08 04:34:44;;;;;;;3.50;2.03;;;16.40;99.90;;;;;;5072251;28;20245;-51
2022/09/08 04:37:12;;;;;;;2.83;2.10;;;16.60;99.90;;;;;;5072293;28;20498;-51
2022/09/08 04:39:39;;;;;;;2.53;2.33;;;16.50;99.90;;;;;;5071733;28;20431;-51
2022/09/08 04:42:06;;;;;;;4.17;2.43;;;16.20;99.90;;;;;;5072217;28;20506;-50
2022/09/08 04:44:33;;;;;;;3.00;2.27;;;15.90;99.90;;;;;;5071818;28;20561;-50
2022/09/08 04:47:00;;;;;;;2.57;2.33;;;15.90;99.90;;;;;;5072153;28;20612;-51
2022/09/08 04:49:27;;;;;;;2.53;2.15;;;16.20;99.90;;;;;;5071367;28;20431;-50
2022/09/08 04:51:54;;;;;;;5.60;2.80;;;16.40;99.90;;;;;;5070943;28;20471;-51
2022/09/08 04:54:23;;;;;;;3.43;2.33;;;16.60;99.90;;;;;;5071858;28;20447;-50
2022/09/08 04:56:50;;;;;;;4.17;2.87;;;16.60;99.90;;;;;;5071384;28;20638;-50
2022/09/08 04:59:18;;;;;;;3.75;2.60;;;16.50;99.90;;;;;;5071163;28;20527;-50
2022/09/08 05:01:45;;;;;;;3.20;2.90;;;16.30;99.90;;;;;;5071874;28;20632;-50
2022/09/08 05:04:12;;;;;;;3.30;3.00;;;16.40;99.90;;;;;;5071582;28;20460;-50
2022/09/08 05:06:39;;;;;;;3.63;2.73;;;16.50;99.90;;;;;;5071683;28;20549;-52
2022/09/08 05:09:06;;;;;;;6.50;3.13;;;16.60;99.90;;;;;;5071332;28;20448;-50
2022/09/08 05:11:36;;;;;;;2.97;2.67;;;16.60;99.90;;;;;;5071845;28;20521;-50
2022/09/08 05:14:04;;;;;;;3.40;3.03;;;16.50;99.90;;;;;;5071584;28;20437;-50
2022/09/08 05:16:33;;;;;;;2.47;2.20;;;16.60;99.90;;;;;;5071361;28;20543;-50
2022/09/08 05:19:01;;;;;;;2.92;2.38;;;16.70;99.90;;;;;;5069456;28;20219;-51
2022/09/08 05:21:30;;;;;;;3.23;2.93;;;16.70;99.90;;;;;;5071283;28;20229;-50
2022/09/08 05:24:00;;;;;;;2.70;2.50;;;16.70;99.90;;;;;;5071766;28;20444;-50
2022/09/08 05:26:27;;;;;;;3.80;3.43;;;16.60;99.90;;;;;;5071414;28;20476;-50
2022/09/08 05:28:56;;;;;;;3.90;3.07;;;16.40;99.90;;;;;;5070769;28;20992;-50
2022/09/08 05:31:26;;;;;;;4.03;3.63;;;16.20;99.90;;;;;;5071516;28;20468;-51
2022/09/08 05:33:54;;;;;;;3.00;2.70;;;16.30;99.90;;;;;;5070963;28;20962;-50
2022/09/08 05:36:23;;;;;;;7.20;3.67;;;16.00;99.90;;;;;;5071151;28;20456;-49
2022/09/08 05:38:50;;;;;;;5.00;3.80;;;15.60;99.90;;;;;;5070645;28;20449;-50
2022/09/08 05:41:18;;;;;;;4.55;3.20;;;15.60;99.90;;;;;;5071119;28;20452;-52
2022/09/08 05:43:45;;;;;;;4.63;3.42;;;15.90;99.90;;;;;;5070997;28;20226;-51
2022/09/08 05:46:14;;;;;;;3.77;2.67;;;16.20;99.90;;;;;;5070546;28;20225;-50
2022/09/08 05:48:41;;;;;;;3.75;2.70;;;16.30;99.90;;;;;;5070538;28;20480;-48
2022/09/08 05:51:12;;;;;;;5.73;2.77;;;16.40;99.90;;;;;;5070954;28;20323;-51
2022/09/08 05:53:39;;;;;;;3.87;2.80;;;16.40;99.90;;;;;;5070813;28;20524;-50
2022/09/08 05:56:07;;;;;;;3.23;2.70;;;16.20;99.90;;;;;;5070158;28;20852;-52
2022/09/08 05:58:35;;;;;;;4.60;2.67;;;16.20;99.90;;;;;;5070618;28;20437;-51
2022/09/08 06:01:04;;;;;;;5.23;3.40;;;16.40;99.90;;;;;;5070226;28;20441;-50
2022/09/08 06:03:33;;;;;;;5.20;2.80;;;16.50;99.90;;;;;;5070917;28;20798;-51
2022/09/08 06:06:04;;;;;;;4.70;3.10;;;16.50;99.90;;;;;;5070430;28;21054;-50
2022/09/08 06:08:31;;;;;;;3.50;3.07;;;16.60;99.90;;;;;;5070805;28;20445;-52
2022/09/08 06:10:58;;;;;;;4.10;3.43;;;16.70;99.90;;;;;;5070720;28;20452;-51
2022/09/08 06:13:25;;;;;;;8.00;7.20;;;16.60;99.90;;;;;;5070811;28;20449;-50
2022/09/08 06:15:52;;;;;;;7.00;4.95;;;16.50;99.90;;;;;;5070609;28;20213;-51
2022/09/08 06:18:20;;;;;;;7.10;4.10;;;16.30;99.90;;;;;;5068806;28;20206;-51
2022/09/08 06:20:48;;;;;;;4.73;4.20;;;16.40;99.90;;;;;;5069778;28;20457;-50
2022/09/08 06:23:15;;;;;;;18.37;16.77;;;16.40;99.90;;;;;;5070503;28;21002;-50
2022/09/08 06:25:44;;;;;;;7.73;7.03;;;16.60;99.90;;;;;;5070019;28;21030;-49
2022/09/08 06:28:30;;;;;;;9.25;8.43;;;16.60;99.90;;;;;;5070712;28;20848;-51
2022/09/08 06:30:57;;;;;;;4.73;3.53;;;16.50;99.90;;;;;;5069348;28;20635;-51
2022/09/08 06:33:30;;;;;;;4.57;3.47;;;16.50;99.90;;;;;;5069990;28;20471;-49
2022/09/08 06:36:10;;;;;;;3.80;3.40;;;16.50;99.90;;;;;;5070721;28;20507;-50
2022/09/08 06:38:43;;;;;;;5.30;3.80;;;16.50;99.90;;;;;;5069852;28;20789;-50
2022/09/08 06:41:15;;;;;;;6.07;4.13;;;16.50;99.90;;;;;;5070069;28;20448;-50
2022/09/08 06:43:45;;;;;;;6.50;3.40;;;16.60;99.90;;;;;;5069989;28;20431;-50
2022/09/08 06:46:18;;;;;;;4.20;2.93;;;16.60;99.90;;;;;;5069608;28;20476;-50
2022/09/08 06:48:45;;;;;;;4.20;3.23;;;16.80;99.90;;;;;;5069484;28;20448;-51
2022/09/08 06:51:32;;;;;;;4.40;3.50;;;16.80;99.90;;;;;;5069892;28;20445;-50
2022/09/08 06:54:13;;;;;;;4.93;4.03;;;16.80;99.90;;;;;;5070045;28;20584;-50
2022/09/08 06:56:56;;;;;;;8.00;7.03;;;16.70;99.90;;;;;;5069094;28;20502;-51
2022/09/08 06:59:35;;;;;;;5.07;4.57;;;16.60;99.90;;;;;;5069119;28;20441;-50
2022/09/08 07:02:26;;;;;;;4.83;4.13;;;16.60;99.90;;;;;;5069999;28;20437;-50
2022/09/08 07:05:00;;;;;;;6.00;4.60;;;16.60;99.90;;;;;;5066967;28;21004;-50
2022/09/08 07:07:35;;;;;;;5.37;3.70;;;16.70;99.90;;;;;;5069585;28;20428;-51
2022/09/08 07:10:10;;;;;;;5.53;4.40;;;16.80;99.90;;;;;;5069072;28;20533;-51
2022/09/08 07:12:45;;;;;;;4.47;4.07;;;16.90;99.90;;;;;;5069555;28;20440;-50
2022/09/08 07:15:27;;;;;;;6.27;4.97;;;16.90;99.90;;;;;;5069199;28;21020;-50
2022/09/08 07:18:01;;;;;;;5.70;3.67;;;16.80;99.90;;;;;;5067860;28;20517;-51
2022/09/08 07:20:29;;;;;;;5.73;3.50;;;16.80;99.90;;;;;;5068853;28;20439;-50
2022/09/08 07:23:01;;;;;;;6.33;3.60;;;16.80;99.90;;;;;;5069521;28;20444;-50
2022/09/08 07:25:33;;;;;;;4.57;4.17;;;17.00;99.90;;;;;;5069250;28;20480;-51
2022/09/08 07:28:05;;;;;;;5.20;3.63;;;16.80;99.90;;;;;;5069462;28;20511;-52
2022/09/08 07:30:35;;;;;;;4.93;4.43;;;16.70;99.90;;;;;;5068818;28;20498;-51
2022/09/08 07:33:11;;;;;;;4.87;3.80;;;16.80;99.90;;;;;;5069874;28;20202;-50
2022/09/08 07:36:10;;;;;;;5.88;4.43;;;16.80;99.90;;;;;;5069594;28;20475;-50
2022/09/08 07:38:46;;;;;;;4.53;3.53;;;16.60;99.90;;;;;;5069245;28;20204;-49
2022/09/08 07:41:19;;;;;;;5.70;5.00;;;16.60;99.90;;;;;;5069217;28;21048;-50
2022/09/08 07:43:48;;;;;;;6.70;4.60;;;16.70;99.90;;;;;;5070740;28;20581;-50
2022/09/08 07:46:44;;;;;;;6.23;4.13;;;16.70;99.90;;;;;;5070482;28;20541;-51
2022/09/08 07:49:22;;;;;;;5.10;4.13;;;16.80;99.90;;;;;;5068890;28;20528;-51
2022/09/08 07:51:57;;;;;;;5.87;4.57;;;16.70;99.90;;;;;;5069411;28;20448;-50
2022/09/08 07:54:38;;;;;;;5.90;5.30;;;16.90;99.90;;;;;;5069051;28;20478;-49
2022/09/08 07:57:15;;;;;;;8.10;5.97;;;17.10;99.90;;;;;;5068711;28;20444;-50
2022/09/08 07:59:49;;;;;;;6.63;5.13;;;17.10;99.90;;;;;;5068655;28;20514;-49
2022/09/08 08:02:37;;;;;;;9.70;5.63;;;17.10;99.90;;;;;;5069236;28;20453;-53
2022/09/08 08:05:14;;;;;;;4.40;4.00;;;17.00;99.90;;;;;;5068835;28;20476;-50
2022/09/08 08:07:48;;;;;;;4.70;4.17;;;16.90;99.90;;;;;;5069237;28;20440;-50
2022/09/08 08:10:24;;;;;;;4.50;4.10;;;16.90;99.90;;;;;;5068312;28;20448;-50
2022/09/08 08:13:01;;;;;;;8.23;5.97;;;17.10;99.90;;;;;;5068966;28;20975;-51
2022/09/08 08:15:35;;;;;;;8.60;4.90;;;17.20;99.90;;;;;;5069304;28;20466;-51
2022/09/08 08:18:09;;;;;;;5.37;4.57;;;17.20;99.90;;;;;;5067775;28;20505;-50
2022/09/08 08:20:51;;;;;;;10.10;5.37;;;17.10;99.90;;;;;;5068555;28;20814;-50
2022/09/08 08:23:39;;;;;;;7.05;4.97;;;17.00;99.90;;;;;;5069093;28;20448;-51
2022/09/08 08:26:19;;;;;;;7.55;5.18;;;17.00;99.90;;;;;;5071616;28;20222;-50
2022/09/08 08:28:47;;;;;;;5.77;4.90;;;17.00;99.90;;;;;;5071991;28;20695;-48
2022/09/08 08:31:28;;;;;;;6.67;4.80;;;17.00;99.90;;;;;;5072659;28;20445;-50
2022/09/08 08:34:03;;;;;;;6.00;5.10;;;16.90;99.90;;;;;;5072320;28;20686;-50
2022/09/08 08:36:36;;;;;;;5.90;5.30;;;16.60;99.90;;;;;;5072385;28;20515;-51
2022/09/08 08:39:12;;;;;;;7.00;5.20;;;16.60;99.90;;;;;;5071559;28;20436;-51
2022/09/08 08:41:55;;;;;;;5.83;4.97;;;16.60;99.90;;;;;;5072532;28;20493;-50
2022/09/08 08:44:37;;;;;;;7.57;4.70;;;16.70;99.90;;;;;;5072044;28;20433;-50
2022/09/08 08:47:28;;;;;;;5.60;5.00;;;16.70;99.90;;;;;;5072166;28;20483;-50
2022/09/08 08:50:32;;;;;;;5.60;5.07;;;16.80;99.90;;;;;;5071442;28;20808;-49
2022/09/08 08:53:14;;;;;;;5.27;4.57;;;16.60;99.90;;;;;;5072189;28;20881;-52
2022/09/08 08:55:50;;;;;;;4.87;4.30;;;16.60;99.90;;;;;;5071409;28;20959;-50
2022/09/08 08:59:05;;;;;;;6.00;5.40;;;16.80;99.90;;;;;;5072061;28;20506;-51
2022/09/08 09:01:48;;;;;;;5.07;4.57;;;17.10;99.90;;;;;;5025230;28;20232;-51
2022/09/08 09:04:38;;;;;;;5.97;4.40;;;17.10;99.90;;;;;;5071847;28;20425;-50
2022/09/08 09:07:35;;;;;;;4.07;3.67;;;17.20;99.90;;;;;;5071566;28;21046;-48
2022/09/08 09:10:40;;;;;;;9.38;4.68;;;17.00;99.90;;;;;;5071023;28;20255;-51
2022/09/08 09:13:40;;;;;;;5.25;4.75;;;17.00;99.90;;;;;;5072003;28;20448;-49
2022/09/08 09:16:27;;;;;;;5.60;4.43;;;17.20;99.90;;;;;;5071744;28;20220;-50
2022/09/08 09:19:21;;;;;;;6.70;5.03;;;16.80;99.90;;;;;;5070676;28;20460;-51
2022/09/08 09:21:52;;;;;;;6.90;4.77;;;17.00;99.90;;;;;;5072052;28;20494;-49
2022/09/08 09:24:36;;;;;;;10.35;6.10;;;17.20;99.90;;;;;;5071859;28;21008;-50
2022/09/08 09:27:14;;;;;;;5.43;4.93;;;17.20;99.90;;;;;;5071815;28;20229;-51
2022/09/08 09:29:42;;;;;;;7.00;5.80;;;17.20;99.90;;;;;;5070086;28;20448;-51
2022/09/08 09:32:37;;;;;;;9.83;6.93;;;17.20;99.90;;;;;;5071566;28;20552;-49
2022/09/08 09:35:23;;;;;;;6.33;5.70;;;16.80;99.90;;;;;;5071427;28;20788;-50
2022/09/08 09:38:16;;;;;;;7.83;5.77;;;17.00;99.90;;;;;;5070448;28;20421;-49
2022/09/08 09:41:01;;;;;;;7.05;6.35;;;17.10;99.90;;;;;;5036812;28;20478;-50
2022/09/08 09:43:51;;;;;;;7.80;7.10;;;17.30;99.90;;;;;;5071457;28;20601;-52
2022/09/08 09:46:55;;;;;;;8.30;7.50;;;17.20;99.90;;;;;;5071335;28;20530;-50
2022/09/08 09:49:40;;;;;;;6.90;6.20;;;17.20;99.90;;;;;;5070383;28;20454;-52
2022/09/08 09:52:21;;;;;;;7.10;6.40;;;17.40;99.90;;;;;;5071168;28;20457;-50
2022/09/08 09:55:02;;;;;;;8.13;6.10;;;17.40;99.90;;;;;;5070608;28;20464;-50
2022/09/08 09:58:07;;;;;;;7.80;7.10;;;17.60;99.90;;;;;;5070306;28;20482;-51
2022/09/08 10:00:52;;;;;;;7.90;7.10;;;17.20;99.90;;;;;;5070003;28;20226;-50
2022/09/08 10:04:04;;;;;;;4.80;3.92;;;17.20;99.90;;;;;;5070973;28;20428;-50
2022/09/08 10:06:50;;;;;;;4.00;3.20;;;17.00;99.90;;;;;;5008093;28;20233;-49
2022/09/08 10:09:56;;;;;;;2.53;1.90;;;17.10;99.90;;;;;;5007609;28;20204;-49
2022/09/08 10:12:59;;;;;;;3.20;2.08;;;17.00;99.90;;;;;;5065012;28;20454;-50
2022/09/08 10:16:04;;;;;;;2.33;1.80;;;17.00;99.90;;;;;;5070312;28;20279;-49
2022/09/08 10:19:09;;;;;;;4.80;1.92;;;16.90;99.90;;;;;;5069499;28;20940;-49
2022/09/08 10:22:30;;;;;;;3.60;1.77;;;16.90;99.90;;;;;;5052466;28;20217;-50
2022/09/08 10:25:22;;;;;;;3.23;2.00;;;17.00;99.90;;;;;;5002917;28;20627;-49
2022/09/08 10:28:28;;;;;;;2.40;2.07;;;16.90;99.90;;;;;;4997127;28;20915;-49
2022/09/08 10:31:32;;;;;;;2.10;1.35;;;17.10;99.90;;;;;;5069595;28;20578;-48
2022/09/08 10:34:37;;;;;;;2.40;1.53;;;16.90;99.90;;;;;;5071003;28;20218;-50
2022/09/08 10:37:09;;;;;;;1.43;1.00;;;17.00;99.90;;;;;;5046999;28;20533;-49
2022/09/08 10:39:53;;;;;;;2.57;1.20;;;16.90;99.90;;;;;;5069929;28;20444;-50
2022/09/08 10:42:43;;;;;;;1.60;0.90;;;16.70;99.90;;;;;;5070119;28;20493;-51
2022/09/08 10:45:36;;;;;;;1.33;0.87;;;16.80;99.90;;;;;;5062039;28;20481;-48
2022/09/08 10:48:32;;;;;;;1.77;1.13;;;16.60;99.90;;;;;;5060444;28;20518;-49
2022/09/08 10:51:16;;;;;;;1.50;1.10;;;16.50;99.90;;;;;;5069479;28;20424;-48
2022/09/08 10:54:14;;;;;;;1.30;0.80;;;16.50;99.90;;;;;;5070311;28;20518;-49
2022/09/08 10:56:43;;;;;;;1.55;0.98;;;16.40;99.90;;;;;;5069167;28;20905;-49
2022/09/08 10:59:45;;;;;;;1.30;0.80;;;16.30;99.90;;;;;;5069227;28;20259;-49
2022/09/08 11:02:28;;;;;;;2.23;1.60;;;16.50;99.90;;;;;;5058858;28;20439;-49
2022/09/08 11:05:35;;;;;;;2.00;1.00;;;16.60;99.90;;;;;;5066979;28;20472;-49
2022/09/08 11:08:37;;;;;;;3.53;1.47;;;16.70;99.90;;;;;;5069674;28;20828;-49
2022/09/08 11:11:51;;;;;;;2.07;1.87;;;16.50;99.90;;;;;;5069261;28;20445;-49
2022/09/08 11:14:50;;;;;;;2.20;1.60;;;16.70;99.90;;;;;;5069811;28;20501;-50
2022/09/08 11:17:23;;;;;;;4.63;1.43;;;16.70;99.90;;;;;;5037801;28;20501;-49
2022/09/08 11:19:52;;;;;;;3.97;1.80;;;16.60;99.90;;;;;;5069105;28;20433;-49
2022/09/08 11:23:00;;;;;;;2.60;2.40;;;16.40;99.90;;;;;;5069690;28;20422;-50
2022/09/08 11:25:37;;;;;;;1.83;1.63;;;16.70;99.90;;;;;;5069687;28;20528;-49
2022/09/08 11:28:17;;;;;;;3.40;3.10;;;16.80;99.90;;;;;;5069962;28;20432;-50
2022/09/08 11:30:52;;;;;;;3.30;3.00;;;16.80;99.90;;;;;;5069047;28;20445;-49
2022/09/08 11:33:38;;;;;;;2.23;1.97;;;16.80;99.90;;;;;;5070497;28;20297;-50
2022/09/08 11:36:20;;;;;;;5.77;1.97;;;16.90;99.90;;;;;;5070224;28;20551;-50
2022/09/08 11:38:58;;;;;;;4.13;1.93;;;16.90;99.90;;;;;;5071623;28;20452;-48
2022/09/08 11:41:48;;;;;;;2.27;1.93;;;17.00;99.90;;;;;;5070790;28;20452;-50
2022/09/08 11:44:42;;;;;;;3.10;2.90;;;17.10;99.90;;;;;;5069664;28;20530;-52
2022/09/08 11:47:38;;;;;;;1.70;1.23;;;17.20;99.90;;;;;;5069336;28;20733;-49
2022/09/08 11:50:28;;;;;;;1.40;1.20;;;16.90;99.90;;;;;;5068674;28;20535;-51
2022/09/08 11:53:29;;;;;;;1.57;1.07;;;16.80;99.90;;;;;;5069322;28;20963;-50
2022/09/08 11:56:24;;;;;;;7.33;1.77;;;16.70;99.90;;;;;;5068491;28;20468;-51
2022/09/08 11:59:08;;;;;;;2.40;2.03;;;16.90;99.90;;;;;;5065943;28;20448;-51
2022/09/08 12:01:53;;;;;;;2.10;1.50;;;17.20;99.90;;;;;;5072793;28;21090;-50
2022/09/08 12:04:46;;;;;;;1.83;1.50;;;17.20;99.90;;;;;;5072981;28;20843;-52
2022/09/08 12:07:30;;;;;;;2.53;1.63;;;17.30;99.90;;;;;;5062598;28;20564;-48
2022/09/08 12:10:32;;;;;;;3.35;1.70;;;17.30;99.90;;;;;;5072505;28;20452;-50
2022/09/08 12:13:05;;;;;;;2.38;1.58;;;17.30;99.90;;;;;;5073080;28;20651;-49
2022/09/08 12:16:06;;;;;;;2.75;1.60;;;17.40;99.90;;;;;;5072867;28;20309;-49
2022/09/08 12:18:48;;;;;;;2.63;2.08;;;17.50;99.90;;;;;;5071864;28;20201;-49
2022/09/08 12:21:37;;;;;;;2.33;1.50;;;17.40;99.90;;;;;;5072813;28;20198;-48
2022/09/08 12:24:18;;;;;;;2.37;1.70;;;17.50;99.90;;;;;;5073008;28;20432;-49
2022/09/08 12:26:53;;;;;;;2.77;2.57;;;17.50;99.90;;;;;;5072437;28;20863;-49
2022/09/08 12:29:56;;;;;;;4.90;1.50;;;17.60;99.90;;;;;;5071885;28;20424;-50
2022/09/08 12:32:40;;;;;;;3.17;1.60;;;17.70;99.90;;;;;;5062315;28;20446;-49
2022/09/08 12:35:30;;;;;;;2.47;1.80;;;17.50;99.90;;;;;;5072411;28;21024;-50
2022/09/08 12:38:06;;;;;;;2.43;1.67;;;17.40;99.90;;;;;;5072401;28;20477;-50
2022/09/08 12:41:21;;;;;;;2.07;1.40;;;17.10;99.90;;;;;;5071830;28;20475;-50
2022/09/08 12:43:48;;;;;;;2.00;1.47;;;16.90;99.90;;;;;;5036307;28;20453;-51
2022/09/08 12:46:40;;;;;;;2.50;1.70;;;17.10;99.90;;;;;;5072196;28;20479;-50
2022/09/08 12:49:40;;;;;;;2.17;1.97;;;17.20;99.90;;;;;;5071501;28;20481;-50
2022/09/08 12:52:16;;;;;;;3.17;1.50;;;17.20;99.90;;;;;;5072328;28;20665;-50
2022/09/08 12:54:58;;;;;;;2.23;2.03;;;17.50;99.90;;;;;;5072164;28;20424;-50
2022/09/08 12:57:57;;;;;;;2.50;1.90;;;17.50;99.90;;;;;;5071755;28;20434;-50
2022/09/08 13:00:29;;;;;;;2.47;1.80;;;16.90;99.90;;;;;;5036885;28;20444;-51
2022/09/08 13:03:12;;;;;;;2.13;1.30;;;16.80;99.90;;;;;;5072370;28;20516;-52
2022/09/08 13:05:52;;;;;;;3.17;2.00;;;17.10;99.90;;;;;;5071690;28;20923;-51
2022/09/08 13:08:33;;;;;;;1.90;1.60;;;17.30;99.90;;;;;;5072109;28;20590;-50
2022/09/08 13:11:07;;;;;;;3.03;2.20;;;17.30;99.90;;;;;;5070620;28;20491;-50
2022/09/08 13:13:40;;;;;;;2.40;1.50;;;17.20;99.90;;;;;;5072194;28;20444;-50
2022/09/08 13:16:23;;;;;;;2.37;1.60;;;17.50;99.90;;;;;;5074283;28;20455;-51
2022/09/08 13:19:02;;;;;;;2.57;1.57;;;17.70;99.90;;;;;;5072743;28;20420;-51
2022/09/08 13:21:41;;;;;;;1.80;1.50;;;17.80;99.90;;;;;;5072398;28;20483;-51
2022/09/08 13:24:11;;;;;;;1.60;1.30;;;17.90;99.90;;;;;;5071806;28;20429;-52
2022/09/08 13:26:51;;;;;;;2.73;1.40;;;17.80;99.90;;;;;;5071593;28;20977;-51
2022/09/08 13:29:45;;;;;;;2.85;1.40;;;17.90;99.90;;;;;;5070896;28;20451;-51
2022/09/08 13:32:27;;;;;;;1.90;1.40;;;17.90;99.90;;;;;;5071443;28;20214;-53
2022/09/08 13:35:06;;;;;;;2.47;1.70;;;18.10;99.90;;;;;;5071353;28;20525;-50
2022/09/08 13:38:08;;;;;;;2.50;2.30;;;17.90;99.90;;;;;;5071329;28;20486;-48
2022/09/08 13:40:45;;;;;;;2.40;1.30;;;18.10;99.90;;;;;;5070761;28;20498;-49